CYYE

Fort Nelson Airport

Fort Nelson, British Columbia, Canada
TAF CYYE 220042Z 2201/2213 13005KT P6SM SKC RMK NXT FCST BY 220700Z
Issued Valid From Valid To
Sep-22 @ 00:42 UTC
(3 hours ago)
Sep-22 @ 01:00 UTC
(2 hours ago)
Sep-22 @ 13:00 UTC
(in 10 hours)
to
TAF CYYE 220042Z 2201/2213 13005KT P6SM SKC RMK NXT FCST BY 220700Z
Issued Sep-22 @ 00:42 UTC
(3 hours ago)
Valid From Sep-22 @ 01:00 UTC
(2 hours ago)
Valid To Sep-22 @ 13:00 UTC
(in 10 hours)
-